sensor_id;sensor_type;location;lat;lon;timestamp;P1;durP1;ratioP1;P2;durP2;ratioP2
41305;SDS011;27051;50.376;19.152;2023-04-06T00:02:02;73.40;;;28.90;;
41305;SDS011;27051;50.376;19.152;2023-04-06T00:04:29;73.10;;;28.90;;
41305;SDS011;27051;50.376;19.152;2023-04-06T00:06:55;65.80;;;29.30;;
41305;SDS011;27051;50.376;19.152;2023-04-06T00:09:21;81.20;;;35.50;;
41305;SDS011;27051;50.376;19.152;2023-04-06T00:11:48;88.50;;;38.90;;
41305;SDS011;27051;50.376;19.152;2023-04-06T00:14:14;103.30;;;42.30;;
41305;SDS011;27051;50.376;19.152;2023-04-06T00:16:41;98.00;;;43.60;;
41305;SDS011;27051;50.376;19.152;2023-04-06T00:19:07;93.50;;;41.30;;
41305;SDS011;27051;50.376;19.152;2023-04-06T00:21:33;83.70;;;35.40;;
41305;SDS011;27051;50.376;19.152;2023-04-06T00:24:00;74.00;;;32.00;;
41305;SDS011;27051;50.376;19.152;2023-04-06T00:26:26;84.70;;;33.30;;
41305;SDS011;27051;50.376;19.152;2023-04-06T00:28:52;78.60;;;34.30;;
41305;SDS011;27051;50.376;19.152;2023-04-06T00:31:19;71.30;;;30.50;;
41305;SDS011;27051;50.376;19.152;2023-04-06T00:33:46;68.10;;;28.40;;
41305;SDS011;27051;50.376;19.152;2023-04-06T00:36:14;67.10;;;29.30;;
41305;SDS011;27051;50.376;19.152;2023-04-06T00:38:40;65.80;;;28.30;;
41305;SDS011;27051;50.376;19.152;2023-04-06T00:41:06;61.40;;;29.00;;
41305;SDS011;27051;50.376;19.152;2023-04-06T00:43:36;65.20;;;28.10;;
41305;SDS011;27051;50.376;19.152;2023-04-06T00:46:02;67.30;;;29.10;;
41305;SDS011;27051;50.376;19.152;2023-04-06T00:48:29;68.60;;;28.60;;
41305;SDS011;27051;50.376;19.152;2023-04-06T00:50:55;57.30;;;26.30;;
41305;SDS011;27051;50.376;19.152;2023-04-06T00:53:21;68.60;;;31.30;;
41305;SDS011;27051;50.376;19.152;2023-04-06T00:55:48;65.00;;;33.80;;
41305;SDS011;27051;50.376;19.152;2023-04-06T00:58:14;64.00;;;30.30;;
41305;SDS011;27051;50.376;19.152;2023-04-06T01:00:41;64.30;;;29.60;;
41305;SDS011;27051;50.376;19.152;2023-04-06T01:03:07;57.60;;;26.40;;
41305;SDS011;27051;50.376;19.152;2023-04-06T01:05:34;64.90;;;28.90;;
41305;SDS011;27051;50.376;19.152;2023-04-06T01:08:01;68.00;;;27.80;;
41305;SDS011;27051;50.376;19.152;2023-04-06T01:10:28;70.80;;;28.30;;
41305;SDS011;27051;50.376;19.152;2023-04-06T01:12:54;71.50;;;31.20;;
41305;SDS011;27051;50.376;19.152;2023-04-06T01:15:21;68.60;;;29.50;;
41305;SDS011;27051;50.376;19.152;2023-04-06T01:17:47;57.60;;;25.80;;
41305;SDS011;27051;50.376;19.152;2023-04-06T01:20:14;57.10;;;24.00;;
41305;SDS011;27051;50.376;19.152;2023-04-06T01:22:40;61.90;;;25.70;;
41305;SDS011;27051;50.376;19.152;2023-04-06T01:25:07;70.00;;;27.30;;
41305;SDS011;27051;50.376;19.152;2023-04-06T01:27:34;73.70;;;30.20;;
41305;SDS011;27051;50.376;19.152;2023-04-06T01:30:01;63.60;;;27.80;;
41305;SDS011;27051;50.376;19.152;2023-04-06T01:32:27;64.40;;;26.70;;
41305;SDS011;27051;50.376;19.152;2023-04-06T01:34:54;63.40;;;26.30;;
41305;SDS011;27051;50.376;19.152;2023-04-06T01:37:20;66.30;;;25.30;;
41305;SDS011;27051;50.376;19.152;2023-04-06T01:39:47;59.00;;;24.30;;
41305;SDS011;27051;50.376;19.152;2023-04-06T01:42:13;56.70;;;23.30;;
41305;SDS011;27051;50.376;19.152;2023-04-06T01:44:39;54.80;;;22.20;;
41305;SDS011;27051;50.376;19.152;2023-04-06T01:47:06;50.10;;;21.50;;
41305;SDS011;27051;50.376;19.152;2023-04-06T01:49:32;52.40;;;21.80;;
41305;SDS011;27051;50.376;19.152;2023-04-06T01:51:59;51.40;;;22.20;;
41305;SDS011;27051;50.376;19.152;2023-04-06T01:54:25;53.90;;;21.30;;
41305;SDS011;27051;50.376;19.152;2023-04-06T01:56:51;54.30;;;21.60;;
41305;SDS011;27051;50.376;19.152;2023-04-06T01:59:18;54.30;;;23.40;;
41305;SDS011;27051;50.376;19.152;2023-04-06T02:01:44;51.20;;;22.40;;
41305;SDS011;27051;50.376;19.152;2023-04-06T02:04:11;48.50;;;23.20;;
41305;SDS011;27051;50.376;19.152;2023-04-06T02:06:37;50.70;;;23.30;;
41305;SDS011;27051;50.376;19.152;2023-04-06T02:09:04;52.70;;;23.70;;
41305;SDS011;27051;50.376;19.152;2023-04-06T02:11:30;57.60;;;24.60;;
41305;SDS011;27051;50.376;19.152;2023-04-06T02:13:56;64.40;;;25.60;;
41305;SDS011;27051;50.376;19.152;2023-04-06T02:16:23;57.80;;;25.20;;
41305;SDS011;27051;50.376;19.152;2023-04-06T02:18:49;58.40;;;23.70;;
41305;SDS011;27051;50.376;19.152;2023-04-06T02:21:16;51.50;;;22.00;;
41305;SDS011;27051;50.376;19.152;2023-04-06T02:23:42;57.60;;;24.00;;
41305;SDS011;27051;50.376;19.152;2023-04-06T02:26:08;75.80;;;34.70;;
41305;SDS011;27051;50.376;19.152;2023-04-06T02:28:35;71.80;;;34.60;;
41305;SDS011;27051;50.376;19.152;2023-04-06T02:31:01;63.30;;;29.20;;
41305;SDS011;27051;50.376;19.152;2023-04-06T02:33:28;62.80;;;27.50;;
41305;SDS011;27051;50.376;19.152;2023-04-06T02:35:54;60.30;;;24.70;;
41305;SDS011;27051;50.376;19.152;2023-04-06T02:38:20;62.20;;;26.60;;
41305;SDS011;27051;50.376;19.152;2023-04-06T02:40:47;53.70;;;25.00;;
41305;SDS011;27051;50.376;19.152;2023-04-06T02:43:13;63.20;;;26.00;;
41305;SDS011;27051;50.376;19.152;2023-04-06T02:45:39;54.50;;;24.80;;
41305;SDS011;27051;50.376;19.152;2023-04-06T02:48:06;61.00;;;25.70;;
41305;SDS011;27051;50.376;19.152;2023-04-06T02:50:32;61.70;;;27.70;;
41305;SDS011;27051;50.376;19.152;2023-04-06T02:52:58;54.30;;;25.60;;
41305;SDS011;27051;50.376;19.152;2023-04-06T02:55:25;53.30;;;24.00;;
41305;SDS011;27051;50.376;19.152;2023-04-06T02:57:51;53.60;;;26.10;;
41305;SDS011;27051;50.376;19.152;2023-04-06T03:00:18;61.20;;;26.90;;
41305;SDS011;27051;50.376;19.152;2023-04-06T03:02:45;56.60;;;25.90;;
41305;SDS011;27051;50.376;19.152;2023-04-06T03:05:11;52.40;;;23.40;;
41305;SDS011;27051;50.376;19.152;2023-04-06T03:07:37;51.40;;;22.70;;
41305;SDS011;27051;50.376;19.152;2023-04-06T03:10:04;53.90;;;24.70;;
41305;SDS011;27051;50.376;19.152;2023-04-06T03:12:31;51.30;;;22.00;;
41305;SDS011;27051;50.376;19.152;2023-04-06T03:14:58;53.60;;;23.70;;
41305;SDS011;27051;50.376;19.152;2023-04-06T03:17:24;49.60;;;21.50;;
41305;SDS011;27051;50.376;19.152;2023-04-06T03:19:50;52.60;;;22.60;;
41305;SDS011;27051;50.376;19.152;2023-04-06T03:22:17;56.00;;;22.10;;
41305;SDS011;27051;50.376;19.152;2023-04-06T03:24:43;51.70;;;22.50;;
41305;SDS011;27051;50.376;19.152;2023-04-06T03:27:10;51.10;;;22.80;;
41305;SDS011;27051;50.376;19.152;2023-04-06T03:29:36;53.80;;;21.20;;
41305;SDS011;27051;50.376;19.152;2023-04-06T03:32:02;46.70;;;19.60;;
41305;SDS011;27051;50.376;19.152;2023-04-06T03:34:29;49.00;;;21.00;;
41305;SDS011;27051;50.376;19.152;2023-04-06T03:36:55;45.10;;;19.70;;
41305;SDS011;27051;50.376;19.152;2023-04-06T03:39:22;46.40;;;20.50;;
41305;SDS011;27051;50.376;19.152;2023-04-06T03:41:48;43.30;;;19.90;;
41305;SDS011;27051;50.376;19.152;2023-04-06T03:44:14;43.20;;;20.30;;
41305;SDS011;27051;50.376;19.152;2023-04-06T03:46:41;44.60;;;19.10;;
41305;SDS011;27051;50.376;19.152;2023-04-06T03:49:07;45.40;;;20.20;;
41305;SDS011;27051;50.376;19.152;2023-04-06T03:51:34;41.50;;;18.30;;
41305;SDS011;27051;50.376;19.152;2023-04-06T03:54:00;42.80;;;19.70;;
41305;SDS011;27051;50.376;19.152;2023-04-06T03:56:26;43.10;;;19.60;;
41305;SDS011;27051;50.376;19.152;2023-04-06T03:58:53;46.70;;;20.00;;
41305;SDS011;27051;50.376;19.152;2023-04-06T04:01:20;45.10;;;20.80;;
41305;SDS011;27051;50.376;19.152;2023-04-06T04:03:46;45.90;;;19.40;;
41305;SDS011;27051;50.376;19.152;2023-04-06T04:06:13;47.60;;;19.30;;
41305;SDS011;27051;50.376;19.152;2023-04-06T04:08:39;45.40;;;18.60;;
41305;SDS011;27051;50.376;19.152;2023-04-06T04:11:06;46.50;;;19.30;;
41305;SDS011;27051;50.376;19.152;2023-04-06T04:13:32;44.60;;;18.50;;
41305;SDS011;27051;50.376;19.152;2023-04-06T04:15:59;52.00;;;23.00;;
41305;SDS011;27051;50.376;19.152;2023-04-06T04:18:25;58.30;;;21.80;;
41305;SDS011;27051;50.376;19.152;2023-04-06T04:20:51;57.10;;;21.90;;
41305;SDS011;27051;50.376;19.152;2023-04-06T04:23:18;58.10;;;22.30;;
41305;SDS011;27051;50.376;19.152;2023-04-06T04:25:44;53.40;;;21.00;;
41305;SDS011;27051;50.376;19.152;2023-04-06T04:28:11;60.00;;;22.50;;
41305;SDS011;27051;50.376;19.152;2023-04-06T04:30:37;69.30;;;28.60;;
41305;SDS011;27051;50.376;19.152;2023-04-06T04:33:03;81.80;;;33.30;;
41305;SDS011;27051;50.376;19.152;2023-04-06T04:35:30;93.90;;;32.20;;
41305;SDS011;27051;50.376;19.152;2023-04-06T04:37:56;64.50;;;23.80;;
41305;SDS011;27051;50.376;19.152;2023-04-06T04:40:22;54.50;;;23.70;;
41305;SDS011;27051;50.376;19.152;2023-04-06T04:42:49;54.10;;;21.60;;
41305;SDS011;27051;50.376;19.152;2023-04-06T04:45:15;53.80;;;24.30;;
41305;SDS011;27051;50.376;19.152;2023-04-06T04:47:42;48.50;;;20.80;;
41305;SDS011;27051;50.376;19.152;2023-04-06T04:50:08;54.50;;;23.00;;
41305;SDS011;27051;50.376;19.152;2023-04-06T04:52:37;53.00;;;24.10;;
41305;SDS011;27051;50.376;19.152;2023-04-06T04:55:03;53.20;;;23.00;;
41305;SDS011;27051;50.376;19.152;2023-04-06T04:57:30;59.50;;;24.80;;
41305;SDS011;27051;50.376;19.152;2023-04-06T04:59:57;55.30;;;23.70;;
41305;SDS011;27051;50.376;19.152;2023-04-06T05:02:23;47.50;;;23.00;;
41305;SDS011;27051;50.376;19.152;2023-04-06T05:04:49;52.80;;;23.20;;
41305;SDS011;27051;50.376;19.152;2023-04-06T05:07:16;54.60;;;24.50;;
41305;SDS011;27051;50.376;19.152;2023-04-06T05:09:42;55.80;;;23.70;;
41305;SDS011;27051;50.376;19.152;2023-04-06T05:12:09;54.30;;;24.70;;
41305;SDS011;27051;50.376;19.152;2023-04-06T05:14:35;52.30;;;23.80;;
41305;SDS011;27051;50.376;19.152;2023-04-06T05:17:02;48.20;;;21.00;;
41305;SDS011;27051;50.376;19.152;2023-04-06T05:19:29;47.00;;;20.60;;
41305;SDS011;27051;50.376;19.152;2023-04-06T05:21:56;51.50;;;22.40;;
41305;SDS011;27051;50.376;19.152;2023-04-06T05:24:22;46.00;;;21.10;;
41305;SDS011;27051;50.376;19.152;2023-04-06T05:26:48;40.20;;;19.10;;
41305;SDS011;27051;50.376;19.152;2023-04-06T05:29:15;43.80;;;20.30;;
41305;SDS011;27051;50.376;19.152;2023-04-06T05:31:42;39.10;;;19.20;;
41305;SDS011;27051;50.376;19.152;2023-04-06T05:34:09;45.70;;;20.50;;
41305;SDS011;27051;50.376;19.152;2023-04-06T05:36:35;41.30;;;19.90;;
41305;SDS011;27051;50.376;19.152;2023-04-06T05:39:02;44.00;;;20.00;;
41305;SDS011;27051;50.376;19.152;2023-04-06T05:41:28;42.20;;;19.50;;
41305;SDS011;27051;50.376;19.152;2023-04-06T05:43:55;34.90;;;16.50;;
41305;SDS011;27051;50.376;19.152;2023-04-06T05:46:21;38.30;;;18.10;;
41305;SDS011;27051;50.376;19.152;2023-04-06T05:48:48;36.10;;;18.20;;
41305;SDS011;27051;50.376;19.152;2023-04-06T05:51:14;35.50;;;16.00;;
41305;SDS011;27051;50.376;19.152;2023-04-06T05:53:41;35.90;;;17.90;;
41305;SDS011;27051;50.376;19.152;2023-04-06T05:56:07;40.70;;;19.00;;
41305;SDS011;27051;50.376;19.152;2023-04-06T05:58:33;40.40;;;20.90;;
41305;SDS011;27051;50.376;19.152;2023-04-06T06:01:00;42.10;;;20.50;;
41305;SDS011;27051;50.376;19.152;2023-04-06T06:03:27;41.90;;;19.60;;
41305;SDS011;27051;50.376;19.152;2023-04-06T06:05:54;35.50;;;17.80;;
41305;SDS011;27051;50.376;19.152;2023-04-06T06:10:52;36.50;;;15.00;;
41305;SDS011;27051;50.376;19.152;2023-04-06T06:13:18;31.70;;;16.60;;
41305;SDS011;27051;50.376;19.152;2023-04-06T06:15:45;32.00;;;17.30;;
41305;SDS011;27051;50.376;19.152;2023-04-06T06:18:12;35.40;;;16.20;;
41305;SDS011;27051;50.376;19.152;2023-04-06T06:20:38;40.40;;;18.50;;
41305;SDS011;27051;50.376;19.152;2023-04-06T06:23:05;35.10;;;17.80;;
41305;SDS011;27051;50.376;19.152;2023-04-06T06:25:31;36.80;;;17.20;;
41305;SDS011;27051;50.376;19.152;2023-04-06T06:27:58;38.90;;;17.90;;
41305;SDS011;27051;50.376;19.152;2023-04-06T06:30:25;33.80;;;16.20;;
41305;SDS011;27051;50.376;19.152;2023-04-06T06:32:52;32.20;;;15.50;;
41305;SDS011;27051;50.376;19.152;2023-04-06T06:35:18;31.30;;;15.60;;
41305;SDS011;27051;50.376;19.152;2023-04-06T06:37:44;34.20;;;15.50;;
41305;SDS011;27051;50.376;19.152;2023-04-06T06:40:11;31.20;;;15.40;;
41305;SDS011;27051;50.376;19.152;2023-04-06T06:42:38;29.40;;;14.80;;
41305;SDS011;27051;50.376;19.152;2023-04-06T06:45:05;32.40;;;14.20;;
41305;SDS011;27051;50.376;19.152;2023-04-06T06:47:33;28.80;;;14.20;;
41305;SDS011;27051;50.376;19.152;2023-04-06T06:49:59;23.80;;;11.60;;
41305;SDS011;27051;50.376;19.152;2023-04-06T06:52:25;27.50;;;12.60;;
41305;SDS011;27051;50.376;19.152;2023-04-06T06:54:52;26.80;;;13.10;;
41305;SDS011;27051;50.376;19.152;2023-04-06T06:57:18;28.60;;;13.70;;
41305;SDS011;27051;50.376;19.152;2023-04-06T06:59:45;25.60;;;13.40;;
41305;SDS011;27051;50.376;19.152;2023-04-06T07:02:11;27.50;;;12.90;;
41305;SDS011;27051;50.376;19.152;2023-04-06T07:04:37;24.60;;;11.60;;
41305;SDS011;27051;50.376;19.152;2023-04-06T07:07:04;25.40;;;11.20;;
41305;SDS011;27051;50.376;19.152;2023-04-06T07:09:30;26.40;;;12.10;;
41305;SDS011;27051;50.376;19.152;2023-04-06T07:11:56;24.80;;;11.70;;
41305;SDS011;27051;50.376;19.152;2023-04-06T07:14:23;26.20;;;10.70;;
41305;SDS011;27051;50.376;19.152;2023-04-06T07:16:49;21.10;;;10.00;;
41305;SDS011;27051;50.376;19.152;2023-04-06T07:19:16;21.90;;;9.90;;
41305;SDS011;27051;50.376;19.152;2023-04-06T07:21:42;22.40;;;10.50;;
41305;SDS011;27051;50.376;19.152;2023-04-06T07:24:09;22.70;;;10.40;;
41305;SDS011;27051;50.376;19.152;2023-04-06T07:26:35;22.70;;;10.60;;
41305;SDS011;27051;50.376;19.152;2023-04-06T07:29:02;17.20;;;9.10;;
41305;SDS011;27051;50.376;19.152;2023-04-06T07:31:28;20.10;;;9.20;;
41305;SDS011;27051;50.376;19.152;2023-04-06T07:33:55;20.30;;;9.10;;
41305;SDS011;27051;50.376;19.152;2023-04-06T07:36:21;19.60;;;9.70;;
41305;SDS011;27051;50.376;19.152;2023-04-06T07:38:48;17.40;;;8.50;;
41305;SDS011;27051;50.376;19.152;2023-04-06T07:41:14;18.00;;;8.50;;
41305;SDS011;27051;50.376;19.152;2023-04-06T07:43:41;18.40;;;8.50;;
41305;SDS011;27051;50.376;19.152;2023-04-06T07:46:07;18.40;;;8.60;;
41305;SDS011;27051;50.376;19.152;2023-04-06T07:48:33;16.50;;;8.80;;
41305;SDS011;27051;50.376;19.152;2023-04-06T07:51:01;19.70;;;9.50;;
41305;SDS011;27051;50.376;19.152;2023-04-06T07:53:28;17.20;;;8.50;;
41305;SDS011;27051;50.376;19.152;2023-04-06T07:55:55;20.90;;;9.20;;
41305;SDS011;27051;50.376;19.152;2023-04-06T07:58:21;17.60;;;8.80;;
41305;SDS011;27051;50.376;19.152;2023-04-06T08:00:48;15.90;;;8.20;;
41305;SDS011;27051;50.376;19.152;2023-04-06T08:03:14;16.70;;;8.30;;
41305;SDS011;27051;50.376;19.152;2023-04-06T08:05:41;15.40;;;8.50;;
41305;SDS011;27051;50.376;19.152;2023-04-06T08:08:07;23.60;;;9.30;;
41305;SDS011;27051;50.376;19.152;2023-04-06T08:10:34;17.70;;;9.60;;
41305;SDS011;27051;50.376;19.152;2023-04-06T08:13:00;19.50;;;9.70;;
41305;SDS011;27051;50.376;19.152;2023-04-06T08:15:27;47.00;;;27.40;;
41305;SDS011;27051;50.376;19.152;2023-04-06T08:17:56;19.80;;;10.00;;
41305;SDS011;27051;50.376;19.152;2023-04-06T08:20:22;25.20;;;11.80;;
41305;SDS011;27051;50.376;19.152;2023-04-06T08:22:49;21.20;;;10.60;;
41305;SDS011;27051;50.376;19.152;2023-04-06T08:25:15;20.30;;;9.50;;
41305;SDS011;27051;50.376;19.152;2023-04-06T08:27:41;23.40;;;10.20;;
41305;SDS011;27051;50.376;19.152;2023-04-06T08:30:08;22.30;;;12.20;;
41305;SDS011;27051;50.376;19.152;2023-04-06T08:32:38;26.10;;;11.10;;
41305;SDS011;27051;50.376;19.152;2023-04-06T08:35:04;23.50;;;11.10;;
41305;SDS011;27051;50.376;19.152;2023-04-06T08:37:31;24.10;;;11.60;;
41305;SDS011;27051;50.376;19.152;2023-04-06T08:39:57;22.50;;;11.00;;
41305;SDS011;27051;50.376;19.152;2023-04-06T08:42:25;21.20;;;10.00;;
41305;SDS011;27051;50.376;19.152;2023-04-06T08:44:52;19.80;;;10.10;;
41305;SDS011;27051;50.376;19.152;2023-04-06T08:47:19;21.40;;;10.70;;
41305;SDS011;27051;50.376;19.152;2023-04-06T08:49:45;23.40;;;11.70;;
41305;SDS011;27051;50.376;19.152;2023-04-06T08:52:13;23.00;;;11.40;;
41305;SDS011;27051;50.376;19.152;2023-04-06T08:54:42;30.00;;;12.30;;
41305;SDS011;27051;50.376;19.152;2023-04-06T08:57:08;25.00;;;11.70;;
41305;SDS011;27051;50.376;19.152;2023-04-06T08:59:35;25.30;;;13.20;;
41305;SDS011;27051;50.376;19.152;2023-04-06T09:02:03;25.10;;;12.80;;
41305;SDS011;27051;50.376;19.152;2023-04-06T09:04:31;63.90;;;37.10;;
41305;SDS011;27051;50.376;19.152;2023-04-06T09:06:59;25.90;;;12.40;;
41305;SDS011;27051;50.376;19.152;2023-04-06T09:09:26;26.60;;;13.50;;
41305;SDS011;27051;50.376;19.152;2023-04-06T09:11:53;24.60;;;10.90;;
41305;SDS011;27051;50.376;19.152;2023-04-06T09:14:36;23.20;;;11.60;;
41305;SDS011;27051;50.376;19.152;2023-04-06T09:17:03;23.20;;;11.10;;
41305;SDS011;27051;50.376;19.152;2023-04-06T09:19:31;18.30;;;10.30;;
41305;SDS011;27051;50.376;19.152;2023-04-06T09:22:02;18.30;;;9.70;;
41305;SDS011;27051;50.376;19.152;2023-04-06T09:24:39;20.70;;;9.70;;
41305;SDS011;27051;50.376;19.152;2023-04-06T09:27:32;19.30;;;9.40;;
41305;SDS011;27051;50.376;19.152;2023-04-06T09:30:09;20.80;;;10.40;;
41305;SDS011;27051;50.376;19.152;2023-04-06T09:32:44;20.50;;;10.70;;
41305;SDS011;27051;50.376;19.152;2023-04-06T09:35:15;20.50;;;9.90;;
41305;SDS011;27051;50.376;19.152;2023-04-06T09:37:42;17.40;;;9.00;;
41305;SDS011;27051;50.376;19.152;2023-04-06T09:40:09;24.00;;;9.90;;
41305;SDS011;27051;50.376;19.152;2023-04-06T09:42:36;18.40;;;9.70;;
41305;SDS011;27051;50.376;19.152;2023-04-06T09:45:03;18.60;;;9.90;;
41305;SDS011;27051;50.376;19.152;2023-04-06T09:47:30;19.90;;;9.60;;
41305;SDS011;27051;50.376;19.152;2023-04-06T09:49:57;20.60;;;10.10;;
41305;SDS011;27051;50.376;19.152;2023-04-06T09:52:42;18.30;;;9.40;;
41305;SDS011;27051;50.376;19.152;2023-04-06T09:55:20;21.20;;;9.30;;
41305;SDS011;27051;50.376;19.152;2023-04-06T09:58:05;16.00;;;9.20;;
41305;SDS011;27051;50.376;19.152;2023-04-06T10:00:40;17.60;;;9.00;;
41305;SDS011;27051;50.376;19.152;2023-04-06T10:05:50;25.40;;;13.40;;
41305;SDS011;27051;50.376;19.152;2023-04-06T10:08:21;20.40;;;10.50;;
41305;SDS011;27051;50.376;19.152;2023-04-06T10:10:52;21.10;;;13.10;;
41305;SDS011;27051;50.376;19.152;2023-04-06T10:13:19;18.20;;;8.90;;
41305;SDS011;27051;50.376;19.152;2023-04-06T10:15:46;18.60;;;9.20;;
41305;SDS011;27051;50.376;19.152;2023-04-06T10:18:14;14.30;;;7.90;;
41305;SDS011;27051;50.376;19.152;2023-04-06T10:20:53;14.40;;;7.40;;
41305;SDS011;27051;50.376;19.152;2023-04-06T10:23:26;17.20;;;8.00;;
41305;SDS011;27051;50.376;19.152;2023-04-06T10:26:12;17.30;;;8.60;;
41305;SDS011;27051;50.376;19.152;2023-04-06T10:28:41;15.20;;;8.50;;
41305;SDS011;27051;50.376;19.152;2023-04-06T10:31:08;14.00;;;7.40;;
41305;SDS011;27051;50.376;19.152;2023-04-06T10:33:35;15.60;;;7.70;;
41305;SDS011;27051;50.376;19.152;2023-04-06T10:36:14;34.00;;;19.40;;
41305;SDS011;27051;50.376;19.152;2023-04-06T10:38:53;21.00;;;10.00;;
41305;SDS011;27051;50.376;19.152;2023-04-06T10:41:24;17.20;;;8.00;;
41305;SDS011;27051;50.376;19.152;2023-04-06T10:43:59;18.60;;;8.70;;
41305;SDS011;27051;50.376;19.152;2023-04-06T10:46:26;18.10;;;8.20;;
41305;SDS011;27051;50.376;19.152;2023-04-06T10:48:53;15.50;;;7.10;;
41305;SDS011;27051;50.376;19.152;2023-04-06T10:51:23;15.30;;;8.60;;
41305;SDS011;27051;50.376;19.152;2023-04-06T10:53:51;17.70;;;8.80;;
41305;SDS011;27051;50.376;19.152;2023-04-06T10:56:21;16.70;;;8.80;;
41305;SDS011;27051;50.376;19.152;2023-04-06T10:58:52;19.00;;;8.90;;
41305;SDS011;27051;50.376;19.152;2023-04-06T11:01:20;42.20;;;19.80;;
41305;SDS011;27051;50.376;19.152;2023-04-06T11:03:50;17.20;;;9.00;;
41305;SDS011;27051;50.376;19.152;2023-04-06T11:06:19;14.10;;;7.50;;
41305;SDS011;27051;50.376;19.152;2023-04-06T11:08:46;15.80;;;8.40;;
41305;SDS011;27051;50.376;19.152;2023-04-06T11:11:14;15.20;;;7.00;;
41305;SDS011;27051;50.376;19.152;2023-04-06T11:13:53;15.30;;;8.20;;
41305;SDS011;27051;50.376;19.152;2023-04-06T11:16:25;15.00;;;7.20;;
41305;SDS011;27051;50.376;19.152;2023-04-06T11:18:54;16.60;;;7.20;;
41305;SDS011;27051;50.376;19.152;2023-04-06T11:24:31;15.50;;;7.60;;
41305;SDS011;27051;50.376;19.152;2023-04-06T11:26:52;19.50;;;7.70;;
41305;SDS011;27051;50.376;19.152;2023-04-06T11:29:21;18.80;;;8.10;;
41305;SDS011;27051;50.376;19.152;2023-04-06T11:31:50;22.40;;;9.00;;
41305;SDS011;27051;50.376;19.152;2023-04-06T11:34:22;24.70;;;11.60;;
41305;SDS011;27051;50.376;19.152;2023-04-06T11:36:53;14.80;;;7.50;;
41305;SDS011;27051;50.376;19.152;2023-04-06T11:39:25;13.00;;;7.70;;
41305;SDS011;27051;50.376;19.152;2023-04-06T11:41:53;13.80;;;8.00;;
41305;SDS011;27051;50.376;19.152;2023-04-06T11:44:39;20.30;;;9.10;;
41305;SDS011;27051;50.376;19.152;2023-04-06T11:47:09;16.00;;;7.80;;
41305;SDS011;27051;50.376;19.152;2023-04-06T11:49:37;17.00;;;8.30;;
41305;SDS011;27051;50.376;19.152;2023-04-06T11:54:45;16.30;;;7.40;;
41305;SDS011;27051;50.376;19.152;2023-04-06T11:57:12;17.00;;;8.10;;
41305;SDS011;27051;50.376;19.152;2023-04-06T11:59:39;14.20;;;7.70;;
41305;SDS011;27051;50.376;19.152;2023-04-06T12:02:05;14.90;;;7.50;;
41305;SDS011;27051;50.376;19.152;2023-04-06T12:04:32;15.10;;;8.70;;
41305;SDS011;27051;50.376;19.152;2023-04-06T12:06:58;16.70;;;7.50;;
41305;SDS011;27051;50.376;19.152;2023-04-06T12:09:25;18.80;;;9.20;;
41305;SDS011;27051;50.376;19.152;2023-04-06T12:11:51;16.20;;;8.00;;
41305;SDS011;27051;50.376;19.152;2023-04-06T12:14:18;19.40;;;9.10;;
41305;SDS011;27051;50.376;19.152;2023-04-06T12:16:45;20.30;;;8.90;;
41305;SDS011;27051;50.376;19.152;2023-04-06T12:19:12;16.90;;;8.60;;
41305;SDS011;27051;50.376;19.152;2023-04-06T12:21:39;18.80;;;8.60;;
41305;SDS011;27051;50.376;19.152;2023-04-06T12:24:05;19.70;;;9.20;;
41305;SDS011;27051;50.376;19.152;2023-04-06T12:26:32;17.70;;;9.20;;
41305;SDS011;27051;50.376;19.152;2023-04-06T12:28:59;16.60;;;8.10;;
41305;SDS011;27051;50.376;19.152;2023-04-06T12:31:26;19.30;;;8.80;;
41305;SDS011;27051;50.376;19.152;2023-04-06T12:33:52;18.90;;;9.20;;
41305;SDS011;27051;50.376;19.152;2023-04-06T12:36:19;18.30;;;9.60;;
41305;SDS011;27051;50.376;19.152;2023-04-06T12:38:46;19.30;;;9.60;;
41305;SDS011;27051;50.376;19.152;2023-04-06T12:41:14;22.70;;;10.90;;
41305;SDS011;27051;50.376;19.152;2023-04-06T12:43:41;20.60;;;10.10;;
41305;SDS011;27051;50.376;19.152;2023-04-06T12:46:08;21.80;;;10.30;;
41305;SDS011;27051;50.376;19.152;2023-04-06T12:48:35;22.60;;;11.40;;
41305;SDS011;27051;50.376;19.152;2023-04-06T12:51:03;21.50;;;11.30;;
41305;SDS011;27051;50.376;19.152;2023-04-06T12:53:31;23.60;;;12.90;;
41305;SDS011;27051;50.376;19.152;2023-04-06T12:55:59;23.40;;;12.90;;
41305;SDS011;27051;50.376;19.152;2023-04-06T12:58:26;24.20;;;12.80;;
41305;SDS011;27051;50.376;19.152;2023-04-06T13:00:52;21.80;;;11.60;;
41305;SDS011;27051;50.376;19.152;2023-04-06T13:03:19;21.20;;;11.50;;
41305;SDS011;27051;50.376;19.152;2023-04-06T13:05:46;19.30;;;11.10;;
41305;SDS011;27051;50.376;19.152;2023-04-06T13:08:14;20.40;;;11.10;;
41305;SDS011;27051;50.376;19.152;2023-04-06T13:10:44;28.70;;;12.30;;
41305;SDS011;27051;50.376;19.152;2023-04-06T13:15:39;23.80;;;11.50;;
41305;SDS011;27051;50.376;19.152;2023-04-06T13:18:05;22.20;;;11.40;;
41305;SDS011;27051;50.376;19.152;2023-04-06T13:20:32;24.80;;;12.60;;
41305;SDS011;27051;50.376;19.152;2023-04-06T13:22:58;19.90;;;10.50;;
41305;SDS011;27051;50.376;19.152;2023-04-06T13:25:25;23.70;;;11.50;;
41305;SDS011;27051;50.376;19.152;2023-04-06T13:27:51;24.50;;;11.40;;
41305;SDS011;27051;50.376;19.152;2023-04-06T13:30:17;22.30;;;10.80;;
41305;SDS011;27051;50.376;19.152;2023-04-06T13:32:44;19.10;;;11.30;;
41305;SDS011;27051;50.376;19.152;2023-04-06T13:35:10;22.80;;;11.60;;
41305;SDS011;27051;50.376;19.152;2023-04-06T13:37:37;22.70;;;12.20;;
41305;SDS011;27051;50.376;19.152;2023-04-06T13:40:04;24.80;;;13.00;;
41305;SDS011;27051;50.376;19.152;2023-04-06T13:42:31;25.10;;;13.00;;
41305;SDS011;27051;50.376;19.152;2023-04-06T13:44:58;25.70;;;12.20;;
41305;SDS011;27051;50.376;19.152;2023-04-06T13:47:25;25.70;;;13.40;;
41305;SDS011;27051;50.376;19.152;2023-04-06T13:49:51;26.00;;;12.80;;
41305;SDS011;27051;50.376;19.152;2023-04-06T13:52:18;23.50;;;13.00;;
41305;SDS011;27051;50.376;19.152;2023-04-06T13:54:45;21.10;;;11.40;;
41305;SDS011;27051;50.376;19.152;2023-04-06T13:57:11;30.00;;;14.50;;
41305;SDS011;27051;50.376;19.152;2023-04-06T13:59:38;144.80;;;24.90;;
41305;SDS011;27051;50.376;19.152;2023-04-06T14:02:06;39.90;;;17.40;;
41305;SDS011;27051;50.376;19.152;2023-04-06T14:04:33;103.60;;;48.50;;
41305;SDS011;27051;50.376;19.152;2023-04-06T14:07:01;112.70;;;53.30;;
41305;SDS011;27051;50.376;19.152;2023-04-06T14:09:28;125.60;;;67.00;;
41305;SDS011;27051;50.376;19.152;2023-04-06T14:11:56;94.30;;;44.80;;
41305;SDS011;27051;50.376;19.152;2023-04-06T14:14:22;78.20;;;41.10;;
41305;SDS011;27051;50.376;19.152;2023-04-06T14:16:49;48.10;;;23.20;;
41305;SDS011;27051;50.376;19.152;2023-04-06T14:19:16;26.50;;;15.50;;
41305;SDS011;27051;50.376;19.152;2023-04-06T14:21:43;24.10;;;12.40;;
41305;SDS011;27051;50.376;19.152;2023-04-06T14:24:10;23.30;;;12.90;;
41305;SDS011;27051;50.376;19.152;2023-04-06T14:26:38;26.20;;;14.40;;